Time;durP1;ratioP1;P1;durP2;ratioP2;P2;SDS_P1;SDS_P2;PMS_P1;PMS_P2;Temp;Humidity;BMP_temperature;BMP_pressure;BME280_temperature;BME280_humidity;BME280_pressure;Samples;Min_cycle;Max_cycle;Signal;HPM_P1;HPM_P2
2022/05/10 00:00:33;;;;;;;11.00;7.10;;;;;15.10;101486.00;;;;4947617;28;20228;-71
2022/05/10 00:03:19;;;;;;;10.53;7.23;;;;;15.10;101485.00;;;;4941299;28;20232;-70
2022/05/10 00:06:06;;;;;;;9.93;7.13;;;;;15.10;101491.00;;;;4939891;28;20874;-70
2022/05/10 00:08:53;;;;;;;8.83;6.80;;;;;15.10;101488.00;;;;4947511;28;20356;-71
2022/05/10 00:11:41;;;;;;;11.43;7.63;;;;;15.10;101482.00;;;;4947780;28;20253;-71
2022/05/10 00:14:28;;;;;;;9.13;6.60;;;;;15.00;101481.00;;;;4950856;28;20611;-71
2022/05/10 00:17:23;;;;;;;9.87;7.23;;;;;15.00;101486.00;;;;4941097;28;20238;-71
2022/05/10 00:20:13;;;;;;;13.57;8.00;;;;;15.00;101482.00;;;;4950171;28;20236;-70
2022/05/10 00:22:59;;;;;;;10.20;6.93;;;;;15.00;101474.00;;;;4946737;28;20583;-71
2022/05/10 00:25:45;;;;;;;9.30;6.70;;;;;14.90;101476.00;;;;4947296;28;20826;-70
2022/05/10 00:28:33;;;;;;;9.97;7.17;;;;;15.00;101469.00;;;;4947855;28;20232;-69
2022/05/10 00:31:19;;;;;;;10.53;6.90;;;;;15.00;101475.00;;;;4941732;28;20241;-71
2022/05/10 00:34:05;;;;;;;10.30;7.30;;;;;15.00;101477.00;;;;4946635;28;20251;-72
2022/05/10 00:36:52;;;;;;;8.90;6.87;;;;;14.90;101465.00;;;;4947434;28;20357;-70
2022/05/10 00:39:38;;;;;;;8.33;6.33;;;;;14.80;101471.00;;;;4947327;28;20244;-70
2022/05/10 00:42:29;;;;;;;9.87;7.00;;;;;14.80;101458.00;;;;4941785;28;20835;-71
2022/05/10 00:45:22;;;;;;;12.10;7.10;;;;;14.80;101464.00;;;;4945458;28;20244;-70
2022/05/10 00:48:15;;;;;;;12.07;7.03;;;;;14.80;101460.00;;;;4942396;28;20721;-71
2022/05/10 00:51:08;;;;;;;9.37;7.00;;;;;14.80;101461.00;;;;4946285;28;20258;-72
2022/05/10 00:54:00;;;;;;;11.43;7.47;;;;;14.80;101465.00;;;;4946372;28;20257;-73
2022/05/10 00:56:50;;;;;;;8.70;6.80;;;;;14.70;101461.00;;;;4954012;28;20292;-68
2022/05/10 00:59:50;;;;;;;10.17;6.83;;;;;14.70;101455.00;;;;4950182;28;20240;-71
2022/05/10 01:02:49;;;;;;;8.60;6.00;;;;;14.60;101452.00;;;;4945017;28;20270;-72
2022/05/10 01:05:44;;;;;;;7.90;6.33;;;;;14.60;101455.00;;;;4946085;28;20245;-72
2022/05/10 01:08:35;;;;;;;9.10;6.77;;;;;14.60;101449.00;;;;4941681;28;20247;-70
2022/05/10 01:11:26;;;;;;;10.43;7.37;;;;;14.50;101445.00;;;;4940465;28;20821;-73
2022/05/10 01:14:17;;;;;;;10.30;6.93;;;;;14.50;101443.00;;;;4953110;28;20235;-70
2022/05/10 01:17:04;;;;;;;11.13;7.43;;;;;14.50;101436.00;;;;4955085;28;20298;-70
2022/05/10 01:19:52;;;;;;;9.97;6.67;;;;;14.50;101432.00;;;;4951085;28;20804;-70
2022/05/10 01:22:53;;;;;;;9.50;6.63;;;;;14.30;101430.00;;;;4946976;28;20232;-70
2022/05/10 01:25:51;;;;;;;8.73;6.50;;;;;14.30;101428.00;;;;4942566;28;20255;-71
2022/05/10 01:28:43;;;;;;;8.83;6.93;;;;;14.30;101426.00;;;;4942111;28;20262;-72
2022/05/10 01:31:35;;;;;;;10.57;7.30;;;;;14.20;101421.00;;;;4949323;28;20232;-70
2022/05/10 01:34:21;;;;;;;11.17;6.93;;;;;14.20;101424.00;;;;4942190;28;20244;-68
2022/05/10 01:37:13;;;;;;;10.73;7.67;;;;;14.20;101414.00;;;;4950103;28;20275;-72
2022/05/10 01:40:05;;;;;;;10.43;7.73;;;;;14.20;101424.00;;;;4950165;28;20232;-70
2022/05/10 01:42:58;;;;;;;13.47;7.43;;;;;14.10;101419.00;;;;4946618;28;20742;-68
2022/05/10 01:45:50;;;;;;;9.63;6.80;;;;;14.10;101423.00;;;;4947326;28;20232;-71
2022/05/10 01:48:39;;;;;;;11.77;7.37;;;;;14.10;101420.00;;;;4948657;28;20291;-72
2022/05/10 01:51:31;;;;;;;8.13;6.63;;;;;14.00;101425.00;;;;4940738;28;20236;-68
2022/05/10 01:54:58;;;;;;;9.57;6.43;;;;;14.00;101425.00;;;;4948631;28;20381;-70
2022/05/10 01:57:45;;;;;;;10.67;6.60;;;;;14.00;101409.00;;;;4947090;28;20338;-69
2022/05/10 02:00:33;;;;;;;11.47;7.00;;;;;14.10;101417.00;;;;4947538;28;20248;-71
2022/05/10 02:03:24;;;;;;;9.73;6.97;;;;;14.10;101413.00;;;;4946204;28;20296;-70
2022/05/10 02:06:21;;;;;;;12.83;7.57;;;;;14.10;101410.00;;;;4949721;28;20247;-72
2022/05/10 02:09:13;;;;;;;9.73;7.63;;;;;14.10;101405.00;;;;4949610;28;20378;-72
2022/05/10 02:12:06;;;;;;;11.37;7.27;;;;;14.00;101376.00;;;;4949557;28;20605;-69
2022/05/10 02:14:57;;;;;;;10.20;7.27;;;;;14.10;101415.00;;;;4949565;28;20381;-69
2022/05/10 02:17:49;;;;;;;10.40;7.13;;;;;14.10;101407.00;;;;4950798;28;20802;-71
2022/05/10 02:20:42;;;;;;;13.37;8.37;;;;;14.10;101414.00;;;;4946873;28;20232;-70
2022/05/10 02:23:33;;;;;;;10.50;7.97;;;;;14.00;101419.00;;;;4946870;28;20316;-73
2022/05/10 02:26:25;;;;;;;11.50;7.40;;;;;14.10;101418.00;;;;4944696;28;20241;-71
2022/05/10 02:29:17;;;;;;;10.03;7.07;;;;;14.00;101406.00;;;;4949395;28;20242;-70
2022/05/10 02:35:16;;;;;;;10.73;7.67;;;;;14.10;101411.00;;;;4946161;28;20239;-70
2022/05/10 02:38:05;;;;;;;10.67;7.70;;;;;14.00;101407.00;;;;4946633;28;20234;-68
2022/05/10 02:40:54;;;;;;;12.87;8.00;;;;;14.00;101409.00;;;;4945689;28;20725;-70
2022/05/10 02:43:49;;;;;;;11.77;8.27;;;;;14.10;101384.00;;;;4946477;28;20232;-68
2022/05/10 02:46:35;;;;;;;11.87;7.97;;;;;14.00;101402.00;;;;4945459;28;20236;-66
2022/05/10 02:49:28;;;;;;;13.73;7.80;;;;;14.10;101397.00;;;;4935944;28;20243;-71
2022/05/10 02:52:14;;;;;;;10.73;8.10;;;;;14.10;101398.00;;;;4947341;28;20252;-71
2022/05/10 02:55:14;;;;;;;11.00;8.00;;;;;14.00;101387.00;;;;4947100;28;20787;-72
2022/05/10 02:58:06;;;;;;;10.13;7.27;;;;;14.00;101381.00;;;;4948614;28;20248;-71
2022/05/10 03:00:57;;;;;;;14.80;8.30;;;;;14.00;101383.00;;;;4949029;28;20235;-71
2022/05/10 03:03:43;;;;;;;11.53;8.07;;;;;14.00;101369.00;;;;4952837;28;20231;-71
2022/05/10 03:06:30;;;;;;;11.37;8.27;;;;;13.90;101376.00;;;;4942714;28;20240;-72
2022/05/10 03:09:16;;;;;;;11.53;8.23;;;;;13.90;101372.00;;;;4941040;28;20247;-72
2022/05/10 03:12:05;;;;;;;11.53;8.10;;;;;13.80;101371.00;;;;4948315;28;20235;-69
2022/05/10 03:14:53;;;;;;;13.93;8.20;;;;;13.80;101379.00;;;;4948657;28;20272;-69
2022/05/10 03:17:39;;;;;;;13.50;8.40;;;;;13.80;101382.00;;;;4948938;28;20238;-70
2022/05/10 03:20:26;;;;;;;10.20;8.17;;;;;13.80;101368.00;;;;4941839;28;20264;-69
2022/05/10 03:23:12;;;;;;;12.87;8.90;;;;;13.80;101368.00;;;;4952062;28;20231;-70
2022/05/10 03:25:58;;;;;;;13.53;8.80;;;;;13.80;101373.00;;;;4947830;28;20649;-70
2022/05/10 03:28:46;;;;;;;10.97;7.50;;;;;13.60;101357.00;;;;4948554;28;20232;-70
2022/05/10 03:31:32;;;;;;;13.83;9.40;;;;;13.70;101363.00;;;;4932965;28;20232;-68
2022/05/10 03:37:25;;;;;;;12.87;8.40;;;;;13.60;101350.00;;;;4941394;28;20611;-70
2022/05/10 03:40:12;;;;;;;13.30;8.60;;;;;13.60;101344.00;;;;4947809;28;20240;-71
2022/05/10 03:42:58;;;;;;;12.30;9.00;;;;;13.60;101344.00;;;;4947411;28;20877;-69
2022/05/10 03:45:45;;;;;;;12.80;8.77;;;;;13.70;101341.00;;;;4948158;28;20239;-70
2022/05/10 03:48:31;;;;;;;12.67;8.90;;;;;13.60;101333.00;;;;4941907;28;20240;-69
2022/05/10 03:51:18;;;;;;;13.03;8.50;;;;;13.60;101337.00;;;;4947971;28;20228;-68
2022/05/10 03:54:04;;;;;;;11.47;8.67;;;;;13.60;101337.00;;;;4947124;28;20276;-70
2022/05/10 03:56:51;;;;;;;13.63;9.20;;;;;13.60;101333.00;;;;4948009;28;20235;-68
2022/05/10 03:59:41;;;;;;;12.83;8.67;;;;;13.60;101324.00;;;;4945053;28;20608;-69
2022/05/10 04:02:29;;;;;;;15.20;9.63;;;;;13.60;101335.00;;;;4941038;28;20356;-69
2022/05/10 04:05:17;;;;;;;13.67;8.93;;;;;13.50;101340.00;;;;4952686;28;20302;-71
2022/05/10 04:08:04;;;;;;;14.87;9.70;;;;;13.50;101308.00;;;;4947227;28;20231;-70
2022/05/10 04:10:50;;;;;;;14.07;8.87;;;;;13.50;101336.00;;;;4947759;28;20256;-70
2022/05/10 04:13:47;;;;;;;13.63;9.20;;;;;13.60;101330.00;;;;4947171;28;20228;-70
2022/05/10 04:16:34;;;;;;;13.90;8.73;;;;;13.60;101331.00;;;;4941500;28;20232;-70
2022/05/10 04:19:21;;;;;;;16.90;9.40;;;;;13.60;101330.00;;;;4945028;28;20231;-72
2022/05/10 04:22:08;;;;;;;16.30;9.70;;;;;13.70;101337.00;;;;4947211;28;20232;-69
2022/05/10 04:24:54;;;;;;;12.63;9.17;;;;;13.70;101343.00;;;;4944379;28;20352;-71
2022/05/10 04:27:41;;;;;;;13.27;9.20;;;;;13.80;101347.00;;;;4947498;28;20283;-71
2022/05/10 04:30:27;;;;;;;15.27;10.33;;;;;13.70;101341.00;;;;4940720;28;20232;-70
2022/05/10 04:33:13;;;;;;;13.60;9.23;;;;;13.80;101332.00;;;;4947090;28;20330;-69
2022/05/10 04:36:01;;;;;;;16.20;9.77;;;;;13.90;101331.00;;;;4947114;28;20999;-70
2022/05/10 04:38:48;;;;;;;15.17;10.07;;;;;13.90;101341.00;;;;4947522;28;20606;-69
2022/05/10 04:41:37;;;;;;;14.33;9.23;;;;;13.80;101337.00;;;;4947235;28;20838;-68
2022/05/10 04:44:23;;;;;;;17.90;9.10;;;;;13.80;101342.00;;;;4939830;28;20260;-71
2022/05/10 04:47:09;;;;;;;14.10;9.17;;;;;13.90;101340.00;;;;4945415;28;20748;-69
2022/05/10 04:49:55;;;;;;;13.60;9.13;;;;;13.90;101333.00;;;;4948954;28;20236;-70
2022/05/10 04:52:43;;;;;;;13.83;9.20;;;;;13.90;101346.00;;;;4946832;28;20802;-71
2022/05/10 04:55:29;;;;;;;14.33;9.13;;;;;14.00;101347.00;;;;4931218;28;20240;-71
2022/05/10 04:58:16;;;;;;;15.63;9.50;;;;;14.00;101339.00;;;;4947264;28;20691;-69
2022/05/10 05:01:06;;;;;;;14.03;9.40;;;;;14.10;101343.00;;;;4946932;28;20233;-71
2022/05/10 05:03:55;;;;;;;15.37;9.20;;;;;14.10;101346.00;;;;4952510;28;20371;-70
2022/05/10 05:06:41;;;;;;;13.60;9.07;;;;;14.10;101344.00;;;;4941469;28;20265;-70
2022/05/10 05:09:29;;;;;;;13.97;9.23;;;;;14.20;101349.00;;;;4942771;28;20231;-66
2022/05/10 05:12:15;;;;;;;14.93;9.87;;;;;14.20;101357.00;;;;4950727;28;20228;-71
2022/05/10 05:15:03;;;;;;;12.37;8.87;;;;;14.30;101358.00;;;;4950789;28;20625;-70
2022/05/10 05:17:50;;;;;;;13.00;9.10;;;;;14.30;101340.00;;;;4953223;28;20919;-71
2022/05/10 05:20:39;;;;;;;14.20;9.53;;;;;14.30;101360.00;;;;4944840;28;20344;-70
2022/05/10 05:23:25;;;;;;;12.67;8.50;;;;;14.40;101355.00;;;;4948192;28;20783;-70
2022/05/10 05:26:14;;;;;;;15.47;9.27;;;;;14.40;101360.00;;;;4950821;28;20764;-71
2022/05/10 05:29:00;;;;;;;12.97;8.90;;;;;14.40;101361.00;;;;4950489;28;20241;-70
2022/05/10 05:31:48;;;;;;;13.33;9.43;;;;;14.50;101362.00;;;;4950504;28;20236;-68
2022/05/10 05:34:35;;;;;;;14.60;9.67;;;;;14.60;101358.00;;;;4950341;28;20650;-71
2022/05/10 05:37:37;;;;;;;12.77;9.10;;;;;14.70;101357.00;;;;4950347;28;20287;-68
2022/05/10 05:40:25;;;;;;;14.50;9.13;;;;;14.80;101369.00;;;;4942655;28;20740;-71
2022/05/10 05:43:17;;;;;;;15.20;9.23;;;;;14.80;101364.00;;;;4930508;28;20256;-69
2022/05/10 05:46:05;;;;;;;14.60;8.93;;;;;14.90;101355.00;;;;4930747;28;20888;-70
2022/05/10 05:48:51;;;;;;;11.93;8.30;;;;;15.00;101361.00;;;;4931276;28;20372;-69
2022/05/10 05:51:37;;;;;;;15.43;9.00;;;;;15.00;101331.00;;;;4924886;28;20232;-70
2022/05/10 05:54:23;;;;;;;14.17;9.10;;;;;15.10;101349.00;;;;4927178;28;20243;-67
2022/05/10 05:57:10;;;;;;;12.37;9.07;;;;;15.20;101349.00;;;;4930623;28;20238;-70
2022/05/10 05:59:58;;;;;;;14.97;9.30;;;;;15.40;101356.00;;;;4931005;28;20312;-71
2022/05/10 06:02:44;;;;;;;17.20;9.60;;;;;15.40;101351.00;;;;4927441;28;20237;-71
2022/05/10 06:05:31;;;;;;;14.30;9.70;;;;;15.50;101350.00;;;;4936087;28;20236;-70
2022/05/10 06:08:19;;;;;;;13.97;10.07;;;;;15.60;101344.00;;;;4930590;28;20693;-70
2022/05/10 06:11:05;;;;;;;18.13;10.27;;;;;15.80;101342.00;;;;4930303;28;20374;-70
2022/05/10 06:13:52;;;;;;;14.60;9.73;;;;;16.00;101340.00;;;;4930536;28;20238;-70
2022/05/10 06:16:41;;;;;;;15.43;9.77;;;;;16.10;101344.00;;;;4924110;28;20621;-70
2022/05/10 06:19:28;;;;;;;13.80;9.27;;;;;16.20;101346.00;;;;4919591;28;20231;-70
2022/05/10 06:22:15;;;;;;;14.17;10.17;;;;;16.20;101351.00;;;;4930028;28;20899;-68
2022/05/10 06:25:01;;;;;;;15.10;10.43;;;;;16.30;101349.00;;;;4930012;28;20241;-71
2022/05/10 06:27:48;;;;;;;13.80;10.03;;;;;16.40;101346.00;;;;4930165;28;20259;-71
2022/05/10 06:30:35;;;;;;;12.83;9.33;;;;;16.40;101346.00;;;;4923372;28;20393;-69
2022/05/10 06:33:22;;;;;;;13.83;9.90;;;;;16.50;101348.00;;;;4929674;28;20808;-70
2022/05/10 06:36:09;;;;;;;14.40;9.37;;;;;16.70;101345.00;;;;4929077;28;20236;-70
2022/05/10 06:38:55;;;;;;;13.70;9.77;;;;;16.80;101334.00;;;;4930427;28;20282;-71
2022/05/10 06:41:41;;;;;;;13.27;9.23;;;;;16.90;101326.00;;;;4923748;28;20803;-70
2022/05/10 06:44:28;;;;;;;16.27;9.80;;;;;17.10;101328.00;;;;4927697;28;20284;-70
2022/05/10 06:47:14;;;;;;;11.70;8.43;;;;;17.30;101317.00;;;;4929107;28;20737;-70
2022/05/10 06:50:02;;;;;;;14.30;8.97;;;;;17.60;101323.00;;;;4928239;28;20287;-70
2022/05/10 06:52:50;;;;;;;11.20;8.50;;;;;17.80;101314.00;;;;4927630;28;20233;-71
2022/05/10 06:55:38;;;;;;;11.87;7.90;;;;;17.90;101300.00;;;;4926679;28;20593;-70
2022/05/10 06:58:24;;;;;;;10.57;8.03;;;;;18.00;101306.00;;;;4927484;28;20697;-71
2022/05/10 07:01:11;;;;;;;11.70;8.17;;;;;18.10;101305.00;;;;4929809;28;20732;-71
2022/05/10 07:04:00;;;;;;;11.57;8.20;;;;;18.20;101302.00;;;;4942804;28;20236;-70
2022/05/10 07:06:47;;;;;;;10.17;7.43;;;;;18.30;101293.00;;;;4943699;28;20723;-70
2022/05/10 07:09:33;;;;;;;13.80;8.63;;;;;18.60;101300.00;;;;4941564;28;20232;-70
2022/05/10 07:12:20;;;;;;;11.10;7.87;;;;;18.70;101297.00;;;;4948176;28;20223;-71
2022/05/10 07:15:08;;;;;;;12.40;7.50;;;;;18.80;101295.00;;;;4948338;28;20709;-71
2022/05/10 07:17:55;;;;;;;9.40;7.43;;;;;18.80;101302.00;;;;4951780;28;20577;-71
2022/05/10 07:20:42;;;;;;;13.73;7.70;;;;;18.90;101302.00;;;;4942536;28;20228;-70
2022/05/10 07:23:31;;;;;;;10.73;7.60;;;;;19.00;101297.00;;;;4946297;28;20327;-71
2022/05/10 07:26:22;;;;;;;10.47;7.37;;;;;19.20;101299.00;;;;4948392;28;20288;-70
2022/05/10 07:29:08;;;;;;;10.63;7.43;;;;;19.30;101297.00;;;;4948326;28;20240;-72
2022/05/10 07:31:55;;;;;;;10.53;6.67;;;;;19.20;101290.00;;;;4948051;28;20308;-71
2022/05/10 07:34:41;;;;;;;8.60;7.07;;;;;19.20;101291.00;;;;4942056;28;20315;-69
2022/05/10 07:37:27;;;;;;;13.27;7.67;;;;;19.30;101289.00;;;;4947483;28;20783;-68
2022/05/10 07:40:15;;;;;;;15.23;6.53;;;;;19.30;101289.00;;;;4948169;28;20367;-69
2022/05/10 07:43:01;;;;;;;11.23;6.70;;;;;19.50;101286.00;;;;4947657;28;20294;-65
2022/05/10 07:45:51;;;;;;;11.37;7.17;;;;;19.50;101283.00;;;;4942687;28;20235;-69
2022/05/10 07:48:38;;;;;;;9.83;7.27;;;;;19.70;101278.00;;;;4941097;28;20240;-70
2022/05/10 07:51:24;;;;;;;10.37;6.53;;;;;19.60;101281.00;;;;4948287;28;20240;-69
2022/05/10 07:54:10;;;;;;;9.20;6.57;;;;;19.80;101280.00;;;;4947194;28;20371;-70
2022/05/10 07:56:58;;;;;;;10.40;6.40;;;;;20.00;101280.00;;;;4947927;28;20331;-69
2022/05/10 07:59:44;;;;;;;8.47;6.20;;;;;20.20;101277.00;;;;4942012;28;20261;-70
2022/05/10 08:02:30;;;;;;;13.20;6.40;;;;;20.20;101276.00;;;;4939902;28;20233;-70
2022/05/10 08:05:19;;;;;;;15.27;6.67;;;;;20.40;101276.00;;;;4952829;28;20244;-72
2022/05/10 08:08:06;;;;;;;9.17;5.90;;;;;20.50;101275.00;;;;4947513;28;20239;-70
2022/05/10 08:10:54;;;;;;;8.23;6.00;;;;;20.60;101272.00;;;;4948050;28;20253;-69
2022/05/10 08:13:42;;;;;;;11.33;6.43;;;;;20.80;101273.00;;;;4940625;28;20241;-69
2022/05/10 08:16:31;;;;;;;9.10;6.13;;;;;21.00;101269.00;;;;4947177;28;20253;-68
2022/05/10 08:19:17;;;;;;;8.27;5.50;;;;;21.20;101264.00;;;;4951741;28;20233;-68
2022/05/10 08:22:04;;;;;;;10.90;5.67;;;;;21.40;101262.00;;;;4947831;28;20234;-69
2022/05/10 08:24:50;;;;;;;8.43;6.30;;;;;21.50;101265.00;;;;4942504;28;20742;-69
2022/05/10 08:27:37;;;;;;;7.87;5.47;;;;;21.60;101262.00;;;;4940649;28;20317;-69
2022/05/10 08:30:25;;;;;;;8.23;5.67;;;;;21.80;101259.00;;;;4935632;28;20384;-68
2022/05/10 08:33:11;;;;;;;8.30;5.17;;;;;21.90;101266.00;;;;4946707;28;20241;-70
2022/05/10 08:36:00;;;;;;;8.73;5.37;;;;;21.90;101248.00;;;;4947644;28;20770;-70
2022/05/10 08:38:47;;;;;;;6.97;4.93;;;;;22.10;101256.00;;;;4941473;28;20242;-69
2022/05/10 08:41:42;;;;;;;7.00;5.07;;;;;22.10;101249.00;;;;4944813;28;20336;-69
2022/05/10 08:44:31;;;;;;;8.43;5.17;;;;;22.20;101245.00;;;;4945553;28;20226;-70
2022/05/10 08:47:19;;;;;;;9.90;4.83;;;;;22.40;101245.00;;;;4946556;28;20231;-70
2022/05/10 08:50:07;;;;;;;8.20;5.07;;;;;22.50;101242.00;;;;4950973;28;20243;-69
2022/05/10 08:53:14;;;;;;;5.63;4.73;;;;;22.80;101246.00;;;;4944320;28;20279;-70
2022/05/10 08:56:03;;;;;;;8.03;4.90;;;;;23.20;101240.00;;;;4947833;28;20589;-68
2022/05/10 08:59:02;;;;;;;8.63;4.90;;;;;23.70;101230.00;;;;4950434;28;20235;-68
2022/05/10 09:02:03;;;;;;;5.37;4.40;;;;;24.00;101226.00;;;;4949105;28;20614;-69
2022/05/10 09:04:57;;;;;;;6.10;4.40;;;;;24.20;101225.00;;;;4950476;28;20240;-70
2022/05/10 09:07:53;;;;;;;6.53;4.73;;;;;24.30;101215.00;;;;4941001;28;20236;-69
2022/05/10 09:10:45;;;;;;;8.07;5.60;;;;;24.20;101224.00;;;;4942547;28;20287;-69
2022/05/10 09:13:32;;;;;;;9.07;4.53;;;;;24.30;101218.00;;;;4946334;28;20228;-69
2022/05/10 09:16:19;;;;;;;7.30;4.70;;;;;24.30;101221.00;;;;4947213;28;20821;-68
2022/05/10 09:19:06;;;;;;;6.30;3.83;;;;;24.30;101217.00;;;;4949468;28;20345;-70
2022/05/10 09:21:55;;;;;;;5.63;3.93;;;;;24.10;101224.00;;;;4946649;28;20231;-69
2022/05/10 09:24:49;;;;;;;4.93;3.60;;;;;24.10;101216.00;;;;4951620;28;20231;-69
2022/05/10 09:27:35;;;;;;;5.27;4.10;;;;;24.40;101206.00;;;;4937216;28;20227;-69
2022/05/10 09:30:27;;;;;;;4.77;3.90;;;;;24.40;101215.00;;;;4945519;28;20235;-70
2022/05/10 09:36:26;;;;;;;4.17;3.70;;;;;24.80;101203.00;;;;4937322;28;20598;-67
2022/05/10 09:39:20;;;;;;;6.70;4.30;;;;;25.10;101194.00;;;;4945466;28;20231;-68
2022/05/10 09:42:07;;;;;;;4.30;3.57;;;;;25.40;101205.00;;;;4947023;28;20231;-70
2022/05/10 09:44:59;;;;;;;4.57;3.60;;;;;25.60;101199.00;;;;4947506;28;20291;-69
2022/05/10 09:47:58;;;;;;;5.20;3.43;;;;;26.00;101203.00;;;;4941347;28;20228;-66
2022/05/10 09:50:46;;;;;;;7.20;3.77;;;;;26.00;101201.00;;;;4948381;28;20302;-68
2022/05/10 09:53:34;;;;;;;6.77;3.40;;;;;25.60;101186.00;;;;4946467;28;20322;-68
2022/05/10 09:56:37;;;;;;;8.37;3.50;;;;;25.60;101189.00;;;;4950371;28;20768;-70
2022/05/10 09:59:32;;;;;;;3.87;3.57;;;;;26.00;101188.00;;;;4949793;28;20228;-70
2022/05/10 10:02:30;;;;;;;8.43;3.53;;;;;26.20;101181.00;;;;4948038;28;20283;-70
2022/05/10 10:05:24;;;;;;;5.22;3.42;;;;;26.60;101175.00;;;;4957043;28;26617;-70
2022/05/10 10:08:11;;;;;;;14.43;3.97;;;;;26.60;101182.00;;;;4949789;28;20698;-71
2022/05/10 10:10:57;;;;;;;5.68;4.03;;;;;26.60;101184.00;;;;4949889;28;20375;-71
2022/05/10 10:13:46;;;;;;;6.80;3.90;;;;;26.80;101184.00;;;;4942799;28;20236;-68
2022/05/10 10:16:36;;;;;;;4.63;3.78;;;;;26.70;101194.00;;;;4948967;28;20716;-68
2022/05/10 10:19:34;;;;;;;5.43;3.67;;;;;26.70;101184.00;;;;4948234;28;20372;-71
2022/05/10 10:22:28;;;;;;;6.15;3.55;;;;;26.70;101185.00;;;;4947878;28;20235;-69
2022/05/10 10:25:20;;;;;;;6.07;3.95;;;;;26.50;101193.00;;;;4948544;28;20767;-69
2022/05/10 10:28:18;;;;;;;5.35;3.83;;;;;26.60;101184.00;;;;4948065;28;20228;-70
2022/05/10 10:31:13;;;;;;;6.82;3.97;;;;;26.60;101191.00;;;;4947965;28;20837;-70
2022/05/10 10:34:04;;;;;;;7.70;4.22;;;;;26.80;101187.00;;;;4937629;28;20775;-70
2022/05/10 10:36:55;;;;;;;7.35;4.35;;;;;26.80;101189.00;;;;4946200;28;20411;-69
2022/05/10 10:39:47;;;;;;;4.97;3.88;;;;;26.80;101192.00;;;;4948459;28;20563;-70
2022/05/10 10:42:39;;;;;;;6.65;4.30;;;;;26.50;101186.00;;;;4948049;28;20647;-70
2022/05/10 10:45:35;;;;;;;5.93;4.25;;;;;26.30;101185.00;;;;4947751;28;20236;-70
2022/05/10 10:48:28;;;;;;;7.20;4.32;;;;;26.40;101162.00;;;;4948510;28;20299;-70
2022/05/10 10:51:16;;;;;;;6.72;4.05;;;;;26.20;101164.00;;;;4946703;28;20913;-68
2022/05/10 10:54:03;;;;;;;6.50;4.60;;;;;25.90;101156.00;;;;4949927;28;20729;-70
2022/05/10 10:57:12;;;;;;;7.72;4.50;;;;;25.70;101153.00;;;;4942583;28;20237;-70
2022/05/10 11:00:07;;;;;;;6.97;4.53;;;;;25.50;101154.00;;;;4947875;28;20248;-70
2022/05/10 11:03:01;;;;;;;8.77;3.97;;;;;25.50;101148.00;;;;4945945;28;20341;-70
2022/05/10 11:06:19;;;;;;;5.47;4.53;;;;;25.40;101140.00;;;;4946090;28;20231;-68
2022/05/10 11:09:15;;;;;;;8.73;4.95;;;;;25.50;101133.00;;;;4947370;28;20239;-69
2022/05/10 11:12:14;;;;;;;5.63;4.20;;;;;25.60;101134.00;;;;4944600;28;20380;-68
2022/05/10 11:15:18;;;;;;;9.45;4.57;;;;;25.60;101142.00;;;;4944088;28;20725;-70
2022/05/10 11:18:26;;;;;;;6.15;4.30;;;;;25.80;101151.00;;;;4949079;28;20711;-72
2022/05/10 11:21:23;;;;;;;5.90;4.20;;;;;25.80;101140.00;;;;4945613;28;20708;-69
2022/05/10 11:24:20;;;;;;;5.07;4.20;;;;;26.00;101138.00;;;;4954094;28;20360;-69
2022/05/10 11:27:31;;;;;;;14.03;6.53;;;;;26.30;101137.00;;;;4945293;28;20236;-70
2022/05/10 11:30:22;;;;;;;7.43;4.60;;;;;26.50;101127.00;;;;4945823;28;20689;-69
2022/05/10 11:33:20;;;;;;;8.68;3.85;;;;;26.60;101121.00;;;;4945044;28;20249;-70
2022/05/10 11:36:28;;;;;;;6.00;3.65;;;;;27.10;101123.00;;;;4946346;28;20235;-71
2022/05/10 11:39:52;;;;;;;8.40;4.20;;;;;27.10;101130.00;;;;4946912;28;20232;-70
2022/05/10 11:42:52;;;;;;;7.10;3.63;;;;;27.40;101124.00;;;;4938345;28;20303;-69
2022/05/10 11:45:59;;;;;;;4.35;3.63;;;;;27.50;101129.00;;;;4941047;28;20838;-69
2022/05/10 11:49:11;;;;;;;6.63;3.65;;;;;27.50;101136.00;;;;4942546;28;20283;-70
2022/05/10 11:52:32;;;;;;;5.32;3.40;;;;;27.20;101124.00;;;;4942806;28;20360;-69
2022/05/10 11:55:33;;;;;;;3.95;3.33;;;;;27.10;101128.00;;;;4879785;28;20236;-69
2022/05/10 11:58:20;;;;;;;4.68;3.10;;;;;27.10;101117.00;;;;4948283;28;20235;-72
2022/05/10 12:01:12;;;;;;;4.80;3.80;;;;;27.30;101104.00;;;;4948640;28;20235;-70
2022/05/10 12:03:58;;;;;;;6.10;3.13;;;;;27.70;101119.00;;;;4949616;28;20371;-70
2022/05/10 12:06:46;;;;;;;4.47;3.50;;;;;28.10;101105.00;;;;4940157;28;20235;-71
2022/05/10 12:09:59;;;;;;;4.20;3.72;;;;;28.20;101110.00;;;;4939245;28;20232;-70
2022/05/10 12:23:05;;;;;;;5.97;3.65;;;;;28.30;101103.00;;;;4949630;28;20314;-71
2022/05/10 12:25:57;;;;;;;6.40;3.75;;;;;28.10;101103.00;;;;4942227;28;20243;-70
2022/05/10 12:28:46;;;;;;;6.47;3.65;;;;;27.80;101089.00;;;;4940903;28;20355;-69
2022/05/10 12:31:59;;;;;;;4.72;3.60;;;;;27.90;101100.00;;;;4947241;28;20236;-71
2022/05/10 12:34:49;;;;;;;4.47;3.28;;;;;28.00;101077.00;;;;4941063;28;20787;-70
2022/05/10 12:38:01;;;;;;;6.00;3.53;;;;;28.10;101085.00;;;;4930331;28;20765;-71
2022/05/10 12:41:02;;;;;;;5.28;3.65;;;;;28.10;101079.00;;;;4941236;28;21266;-70
2022/05/10 12:44:10;;;;;;;4.03;3.47;;;;;27.90;101073.00;;;;4941257;28;20232;-70
2022/05/10 12:47:14;;;;;;;5.00;3.20;;;;;27.90;101068.00;;;;4943262;28;20284;-70
2022/05/10 12:50:08;;;;;;;5.32;3.30;;;;;27.90;101066.00;;;;4946681;28;20247;-69
2022/05/10 12:52:54;;;;;;;6.38;3.50;;;;;27.90;101063.00;;;;4944212;28;20241;-69
2022/05/10 12:55:43;;;;;;;5.93;3.53;;;;;27.90;101063.00;;;;4940415;28;20663;-70
2022/05/10 12:58:35;;;;;;;5.45;3.80;;;;;28.10;101052.00;;;;4930312;28;20237;-69
2022/05/10 13:01:23;;;;;;;6.10;3.95;;;;;28.00;101056.00;;;;4946119;28;20239;-71
2022/05/10 13:04:20;;;;;;;6.18;3.85;;;;;27.80;101052.00;;;;4954020;28;20236;-70
2022/05/10 13:07:13;;;;;;;7.60;3.47;;;;;27.70;101045.00;;;;4947342;28;20235;-70
2022/05/10 13:10:03;;;;;;;7.85;4.03;;;;;27.80;101048.00;;;;4947245;28;20241;-70
2022/05/10 13:12:54;;;;;;;3.90;3.38;;;;;27.80;101017.00;;;;4941214;28;20728;-68
2022/05/10 13:15:44;;;;;;;6.70;3.40;;;;;27.80;101035.00;;;;4942143;28;20349;-67
2022/05/10 13:18:31;;;;;;;7.97;3.75;;;;;27.70;101041.00;;;;4948479;28;20283;-72
2022/05/10 13:21:24;;;;;;;5.30;3.90;;;;;27.60;101029.00;;;;4946816;28;20268;-71
2022/05/10 13:24:13;;;;;;;7.18;3.80;;;;;27.70;101013.00;;;;4952642;28;20713;-67
2022/05/10 13:27:01;;;;;;;8.43;3.72;;;;;27.70;101021.00;;;;4947048;28;20856;-69
2022/05/10 13:29:49;;;;;;;5.53;3.65;;;;;27.90;101012.00;;;;4942396;28;20240;-69
2022/05/10 13:32:44;;;;;;;5.82;4.00;;;;;28.00;101015.00;;;;4944894;28;20767;-71
2022/05/10 13:35:35;;;;;;;6.85;4.03;;;;;28.00;101023.00;;;;4950347;28;20235;-70
2022/05/10 13:38:26;;;;;;;6.25;4.13;;;;;28.40;101009.00;;;;4950877;28;20248;-69
2022/05/10 13:41:16;;;;;;;12.35;4.20;;;;;28.50;101015.00;;;;4950981;28;20595;-67
2022/05/10 13:44:09;;;;;;;5.07;3.70;;;;;28.40;101011.00;;;;4951250;28;20364;-70
2022/05/10 13:46:59;;;;;;;6.78;4.30;;;;;28.20;100981.00;;;;4946034;28;20244;-70
2022/05/10 13:49:47;;;;;;;5.47;3.92;;;;;27.90;100979.00;;;;4947894;28;20228;-67
2022/05/10 13:52:38;;;;;;;9.82;3.97;;;;;27.90;100994.00;;;;4950035;28;20236;-69
2022/05/10 13:55:27;;;;;;;8.20;4.03;;;;;27.70;100993.00;;;;4950460;28;20240;-69
2022/05/10 13:58:16;;;;;;;6.63;3.72;;;;;27.60;100972.00;;;;4950025;28;20236;-69
2022/05/10 14:01:04;;;;;;;7.53;4.28;;;;;27.70;100991.00;;;;4950553;28;20299;-68
2022/05/10 14:03:50;;;;;;;5.78;4.32;;;;;27.70;100986.00;;;;4949501;28;20724;-72
2022/05/10 14:06:40;;;;;;;6.85;4.18;;;;;27.20;100977.00;;;;4933436;28;20279;-72
2022/05/10 14:09:31;;;;;;;4.75;3.80;;;;;27.50;100985.00;;;;4949586;28;20315;-68
2022/05/10 14:12:27;;;;;;;7.28;3.67;;;;;27.70;100964.00;;;;4947230;28;20385;-71
2022/05/10 14:15:27;;;;;;;15.18;4.45;;;;;27.60;100964.00;;;;4949452;28;20239;-69
2022/05/10 14:18:16;;;;;;;5.68;4.07;;;;;27.40;100960.00;;;;4953987;28;20239;-68